sensor_id;sensor_type;location;lat;lon;timestamp;P1;durP1;ratioP1;P2;durP2;ratioP2
60999;SDS011;46879;45.658;11.814;2023-02-28T00:00:22;6.18;;;2.50;;
60999;SDS011;46879;45.658;11.814;2023-02-28T00:05:23;3.90;;;2.60;;
60999;SDS011;46879;45.658;11.814;2023-02-28T00:10:26;3.35;;;2.60;;
60999;SDS011;46879;45.658;11.814;2023-02-28T00:15:29;4.40;;;2.72;;
60999;SDS011;46879;45.658;11.814;2023-02-28T00:20:30;2.97;;;2.50;;
60999;SDS011;46879;45.658;11.814;2023-02-28T00:25:31;3.53;;;2.30;;
60999;SDS011;46879;45.658;11.814;2023-02-28T00:30:31;3.65;;;2.13;;
60999;SDS011;46879;45.658;11.814;2023-02-28T00:35:32;3.75;;;2.42;;
60999;SDS011;46879;45.658;11.814;2023-02-28T00:40:33;4.35;;;2.70;;
60999;SDS011;46879;45.658;11.814;2023-02-28T00:45:33;5.55;;;2.70;;
60999;SDS011;46879;45.658;11.814;2023-02-28T00:50:35;4.00;;;2.45;;
60999;SDS011;46879;45.658;11.814;2023-02-28T00:55:36;3.13;;;2.40;;
60999;SDS011;46879;45.658;11.814;2023-02-28T01:00:36;8.15;;;2.75;;
60999;SDS011;46879;45.658;11.814;2023-02-28T01:05:37;3.75;;;2.30;;
60999;SDS011;46879;45.658;11.814;2023-02-28T01:10:37;5.93;;;2.50;;
60999;SDS011;46879;45.658;11.814;2023-02-28T01:15:38;4.03;;;2.47;;
60999;SDS011;46879;45.658;11.814;2023-02-28T01:20:46;3.35;;;2.40;;
60999;SDS011;46879;45.658;11.814;2023-02-28T01:25:46;8.68;;;2.63;;
60999;SDS011;46879;45.658;11.814;2023-02-28T01:30:48;16.55;;;2.30;;
60999;SDS011;46879;45.658;11.814;2023-02-28T01:35:49;6.18;;;2.45;;
60999;SDS011;46879;45.658;11.814;2023-02-28T01:40:57;9.02;;;2.03;;
60999;SDS011;46879;45.658;11.814;2023-02-28T01:45:58;3.25;;;2.35;;
60999;SDS011;46879;45.658;11.814;2023-02-28T01:51:00;4.10;;;2.15;;
60999;SDS011;46879;45.658;11.814;2023-02-28T01:56:06;2.40;;;2.20;;
60999;SDS011;46879;45.658;11.814;2023-02-28T02:01:08;4.90;;;2.40;;
60999;SDS011;46879;45.658;11.814;2023-02-28T02:06:08;7.28;;;2.50;;
60999;SDS011;46879;45.658;11.814;2023-02-28T02:11:09;2.85;;;2.10;;
60999;SDS011;46879;45.658;11.814;2023-02-28T02:44:10;2.58;;;2.08;;
60999;SDS011;46879;45.658;11.814;2023-02-28T02:49:28;2.35;;;2.05;;
60999;SDS011;46879;45.658;11.814;2023-02-28T02:54:36;4.78;;;1.85;;
60999;SDS011;46879;45.658;11.814;2023-02-28T02:59:41;2.55;;;2.05;;
60999;SDS011;46879;45.658;11.814;2023-02-28T03:04:43;4.93;;;2.25;;
60999;SDS011;46879;45.658;11.814;2023-02-28T03:09:54;2.97;;;2.40;;
60999;SDS011;46879;45.658;11.814;2023-02-28T03:15:05;4.00;;;2.28;;
60999;SDS011;46879;45.658;11.814;2023-02-28T03:20:26;16.55;;;2.00;;
60999;SDS011;46879;45.658;11.814;2023-02-28T03:25:50;2.40;;;2.00;;
60999;SDS011;46879;45.658;11.814;2023-02-28T03:36:11;3.08;;;2.00;;
60999;SDS011;46879;45.658;11.814;2023-02-28T03:41:17;2.38;;;2.05;;
60999;SDS011;46879;45.658;11.814;2023-02-28T03:46:23;3.70;;;1.95;;
60999;SDS011;46879;45.658;11.814;2023-02-28T03:51:26;2.13;;;1.92;;
60999;SDS011;46879;45.658;11.814;2023-02-28T03:56:48;2.45;;;2.00;;
60999;SDS011;46879;45.658;11.814;2023-02-28T04:01:56;2.00;;;1.77;;
60999;SDS011;46879;45.658;11.814;2023-02-28T04:07:03;2.25;;;2.00;;
60999;SDS011;46879;45.658;11.814;2023-02-28T04:12:08;2.55;;;2.20;;
60999;SDS011;46879;45.658;11.814;2023-02-28T04:17:09;4.18;;;1.75;;
60999;SDS011;46879;45.658;11.814;2023-02-28T04:22:10;2.90;;;1.65;;
60999;SDS011;46879;45.658;11.814;2023-02-28T04:27:10;3.85;;;2.13;;
60999;SDS011;46879;45.658;11.814;2023-02-28T04:32:11;2.08;;;1.88;;
60999;SDS011;46879;45.658;11.814;2023-02-28T04:37:11;2.25;;;2.03;;
60999;SDS011;46879;45.658;11.814;2023-02-28T04:42:12;3.05;;;1.90;;
60999;SDS011;46879;45.658;11.814;2023-02-28T04:47:13;2.08;;;1.88;;
60999;SDS011;46879;45.658;11.814;2023-02-28T04:52:14;2.20;;;1.83;;
60999;SDS011;46879;45.658;11.814;2023-02-28T04:57:14;3.70;;;2.63;;
60999;SDS011;46879;45.658;11.814;2023-02-28T05:02:15;2.03;;;1.83;;
60999;SDS011;46879;45.658;11.814;2023-02-28T05:07:15;2.90;;;1.92;;
60999;SDS011;46879;45.658;11.814;2023-02-28T05:12:16;2.53;;;2.05;;
60999;SDS011;46879;45.658;11.814;2023-02-28T05:17:16;2.45;;;1.98;;
60999;SDS011;46879;45.658;11.814;2023-02-28T05:22:17;2.38;;;1.90;;
60999;SDS011;46879;45.658;11.814;2023-02-28T05:27:18;2.00;;;1.88;;
60999;SDS011;46879;45.658;11.814;2023-02-28T05:32:18;2.10;;;1.90;;
60999;SDS011;46879;45.658;11.814;2023-02-28T05:37:19;1.90;;;1.70;;
60999;SDS011;46879;45.658;11.814;2023-02-28T05:42:19;5.97;;;2.00;;
60999;SDS011;46879;45.658;11.814;2023-02-28T05:47:20;1.77;;;1.67;;
60999;SDS011;46879;45.658;11.814;2023-02-28T05:52:20;2.03;;;1.83;;
60999;SDS011;46879;45.658;11.814;2023-02-28T05:57:21;1.80;;;1.70;;
60999;SDS011;46879;45.658;11.814;2023-02-28T06:02:22;3.08;;;1.80;;
60999;SDS011;46879;45.658;11.814;2023-02-28T06:07:23;1.80;;;1.63;;
60999;SDS011;46879;45.658;11.814;2023-02-28T06:12:24;2.25;;;1.77;;
60999;SDS011;46879;45.658;11.814;2023-02-28T06:17:24;2.10;;;1.60;;
60999;SDS011;46879;45.658;11.814;2023-02-28T06:22:25;5.13;;;1.98;;
60999;SDS011;46879;45.658;11.814;2023-02-28T06:27:25;1.88;;;1.50;;
60999;SDS011;46879;45.658;11.814;2023-02-28T06:32:26;5.35;;;2.05;;
60999;SDS011;46879;45.658;11.814;2023-02-28T06:37:28;3.15;;;2.00;;
60999;SDS011;46879;45.658;11.814;2023-02-28T06:42:37;3.55;;;2.15;;
60999;SDS011;46879;45.658;11.814;2023-02-28T06:47:38;5.20;;;2.45;;
60999;SDS011;46879;45.658;11.814;2023-02-28T06:52:40;7.68;;;2.60;;
60999;SDS011;46879;45.658;11.814;2023-02-28T06:57:41;2.83;;;2.17;;
60999;SDS011;46879;45.658;11.814;2023-02-28T07:02:41;21.42;;;2.80;;
60999;SDS011;46879;45.658;11.814;2023-02-28T07:07:42;13.15;;;2.58;;
60999;SDS011;46879;45.658;11.814;2023-02-28T07:12:45;8.10;;;2.72;;
60999;SDS011;46879;45.658;11.814;2023-02-28T07:17:45;4.57;;;2.17;;
60999;SDS011;46879;45.658;11.814;2023-02-28T07:22:46;4.70;;;2.35;;
60999;SDS011;46879;45.658;11.814;2023-02-28T07:27:51;6.47;;;2.78;;
60999;SDS011;46879;45.658;11.814;2023-02-28T07:32:53;5.20;;;2.67;;
60999;SDS011;46879;45.658;11.814;2023-02-28T07:37:57;3.03;;;2.30;;
60999;SDS011;46879;45.658;11.814;2023-02-28T07:42:59;7.68;;;2.78;;
60999;SDS011;46879;45.658;11.814;2023-02-28T07:48:00;5.63;;;3.40;;
60999;SDS011;46879;45.658;11.814;2023-02-28T07:53:01;5.57;;;2.58;;
60999;SDS011;46879;45.658;11.814;2023-02-28T07:58:01;3.22;;;2.33;;
60999;SDS011;46879;45.658;11.814;2023-02-28T08:03:02;5.20;;;2.90;;
60999;SDS011;46879;45.658;11.814;2023-02-28T08:08:03;9.85;;;3.53;;
60999;SDS011;46879;45.658;11.814;2023-02-28T08:13:04;7.13;;;2.58;;
60999;SDS011;46879;45.658;11.814;2023-02-28T08:18:04;8.30;;;2.78;;
60999;SDS011;46879;45.658;11.814;2023-02-28T08:23:05;4.60;;;2.25;;
60999;SDS011;46879;45.658;11.814;2023-02-28T08:28:06;4.90;;;2.88;;
60999;SDS011;46879;45.658;11.814;2023-02-28T08:33:06;5.43;;;2.80;;
60999;SDS011;46879;45.658;11.814;2023-02-28T08:38:07;4.93;;;2.92;;
60999;SDS011;46879;45.658;11.814;2023-02-28T08:43:07;9.45;;;2.70;;
60999;SDS011;46879;45.658;11.814;2023-02-28T08:48:08;5.40;;;2.80;;
60999;SDS011;46879;45.658;11.814;2023-02-28T08:53:08;3.33;;;2.60;;
60999;SDS011;46879;45.658;11.814;2023-02-28T08:58:09;3.65;;;2.90;;
60999;SDS011;46879;45.658;11.814;2023-02-28T09:03:09;3.95;;;3.10;;
60999;SDS011;46879;45.658;11.814;2023-02-28T09:08:10;3.10;;;2.63;;
60999;SDS011;46879;45.658;11.814;2023-02-28T09:13:11;8.80;;;2.80;;
60999;SDS011;46879;45.658;11.814;2023-02-28T09:18:11;3.38;;;2.80;;
60999;SDS011;46879;45.658;11.814;2023-02-28T09:23:12;5.05;;;2.50;;
60999;SDS011;46879;45.658;11.814;2023-02-28T09:28:13;4.07;;;2.53;;
60999;SDS011;46879;45.658;11.814;2023-02-28T09:33:16;9.57;;;3.47;;
60999;SDS011;46879;45.658;11.814;2023-02-28T09:38:20;4.63;;;3.10;;
60999;SDS011;46879;45.658;11.814;2023-02-28T09:43:22;5.90;;;3.10;;
60999;SDS011;46879;45.658;11.814;2023-02-28T09:48:32;6.22;;;3.42;;
60999;SDS011;46879;45.658;11.814;2023-02-28T09:53:37;5.85;;;3.10;;
60999;SDS011;46879;45.658;11.814;2023-02-28T09:58:53;5.35;;;3.10;;
60999;SDS011;46879;45.658;11.814;2023-02-28T10:09:22;5.55;;;2.67;;
60999;SDS011;46879;45.658;11.814;2023-02-28T10:14:28;4.20;;;3.15;;
60999;SDS011;46879;45.658;11.814;2023-02-28T10:24:50;8.35;;;3.33;;
60999;SDS011;46879;45.658;11.814;2023-02-28T10:29:55;5.60;;;3.50;;
60999;SDS011;46879;45.658;11.814;2023-02-28T10:45:22;5.68;;;3.05;;
60999;SDS011;46879;45.658;11.814;2023-02-28T10:55:38;5.38;;;3.22;;
60999;SDS011;46879;45.658;11.814;2023-02-28T11:00:39;7.13;;;3.40;;
60999;SDS011;46879;45.658;11.814;2023-02-28T11:05:40;5.72;;;3.20;;
60999;SDS011;46879;45.658;11.814;2023-02-28T11:10:53;9.65;;;3.60;;
60999;SDS011;46879;45.658;11.814;2023-02-28T11:21:07;5.80;;;3.33;;
60999;SDS011;46879;45.658;11.814;2023-02-28T11:26:09;7.78;;;3.08;;
60999;SDS011;46879;45.658;11.814;2023-02-28T11:52:16;5.20;;;3.08;;
60999;SDS011;46879;45.658;11.814;2023-02-28T11:57:33;6.00;;;3.42;;
60999;SDS011;46879;45.658;11.814;2023-02-28T12:19:21;5.28;;;3.45;;
60999;SDS011;46879;45.658;11.814;2023-02-28T12:30:19;6.35;;;3.40;;
60999;SDS011;46879;45.658;11.814;2023-02-28T12:36:18;4.82;;;3.15;;
60999;SDS011;46879;45.658;11.814;2023-02-28T12:41:04;10.30;;;3.65;;
60999;SDS011;46879;45.658;11.814;2023-02-28T12:46:40;5.63;;;3.38;;
60999;SDS011;46879;45.658;11.814;2023-02-28T12:51:43;3.53;;;3.15;;
60999;SDS011;46879;45.658;11.814;2023-02-28T13:13:29;6.07;;;3.40;;
60999;SDS011;46879;45.658;11.814;2023-02-28T13:39:03;5.15;;;3.58;;
60999;SDS011;46879;45.658;11.814;2023-02-28T13:44:48;4.60;;;2.90;;
60999;SDS011;46879;45.658;11.814;2023-02-28T14:00:58;3.95;;;2.70;;
60999;SDS011;46879;45.658;11.814;2023-02-28T14:16:45;4.65;;;3.30;;
60999;SDS011;46879;45.658;11.814;2023-02-28T14:27:24;5.60;;;3.22;;
60999;SDS011;46879;45.658;11.814;2023-02-28T14:32:58;8.95;;;3.30;;
60999;SDS011;46879;45.658;11.814;2023-02-28T14:38:25;5.93;;;3.15;;
60999;SDS011;46879;45.658;11.814;2023-02-28T14:48:58;4.55;;;3.00;;
60999;SDS011;46879;45.658;11.814;2023-02-28T14:54:00;4.15;;;3.20;;
60999;SDS011;46879;45.658;11.814;2023-02-28T14:59:02;5.38;;;3.45;;
60999;SDS011;46879;45.658;11.814;2023-02-28T15:04:05;8.13;;;3.50;;
60999;SDS011;46879;45.658;11.814;2023-02-28T15:09:17;6.70;;;3.35;;
60999;SDS011;46879;45.658;11.814;2023-02-28T15:14:19;7.13;;;3.42;;
60999;SDS011;46879;45.658;11.814;2023-02-28T15:19:25;4.18;;;2.88;;
60999;SDS011;46879;45.658;11.814;2023-02-28T15:24:35;7.13;;;2.92;;
60999;SDS011;46879;45.658;11.814;2023-02-28T15:29:47;4.25;;;3.08;;
60999;SDS011;46879;45.658;11.814;2023-02-28T15:34:50;5.15;;;3.00;;
60999;SDS011;46879;45.658;11.814;2023-02-28T15:39:51;8.07;;;3.08;;
60999;SDS011;46879;45.658;11.814;2023-02-28T15:44:54;3.25;;;2.95;;
60999;SDS011;46879;45.658;11.814;2023-02-28T15:49:57;4.88;;;3.03;;
60999;SDS011;46879;45.658;11.814;2023-02-28T15:55:09;6.80;;;3.15;;
60999;SDS011;46879;45.658;11.814;2023-02-28T16:00:21;4.88;;;3.45;;
60999;SDS011;46879;45.658;11.814;2023-02-28T16:05:24;5.13;;;3.00;;
60999;SDS011;46879;45.658;11.814;2023-02-28T16:10:31;5.77;;;3.23;;
60999;SDS011;46879;45.658;11.814;2023-02-28T16:15:35;4.03;;;2.75;;
60999;SDS011;46879;45.658;11.814;2023-02-28T16:20:42;5.78;;;3.30;;
60999;SDS011;46879;45.658;11.814;2023-02-28T16:25:44;5.13;;;3.00;;
60999;SDS011;46879;45.658;11.814;2023-02-28T16:30:46;5.43;;;3.25;;
60999;SDS011;46879;45.658;11.814;2023-02-28T16:35:47;4.47;;;3.28;;
60999;SDS011;46879;45.658;11.814;2023-02-28T16:40:47;4.75;;;3.13;;
60999;SDS011;46879;45.658;11.814;2023-02-28T16:45:54;4.07;;;2.97;;
60999;SDS011;46879;45.658;11.814;2023-02-28T16:50:57;3.78;;;2.95;;
60999;SDS011;46879;45.658;11.814;2023-02-28T16:55:58;3.58;;;3.00;;
60999;SDS011;46879;45.658;11.814;2023-02-28T17:01:02;5.03;;;3.00;;
60999;SDS011;46879;45.658;11.814;2023-02-28T17:06:04;5.32;;;3.45;;
60999;SDS011;46879;45.658;11.814;2023-02-28T17:11:05;4.70;;;2.88;;
60999;SDS011;46879;45.658;11.814;2023-02-28T17:16:05;5.97;;;2.95;;
60999;SDS011;46879;45.658;11.814;2023-02-28T17:21:28;3.30;;;3.00;;
60999;SDS011;46879;45.658;11.814;2023-02-28T17:26:29;4.45;;;3.00;;
60999;SDS011;46879;45.658;11.814;2023-02-28T17:31:30;3.40;;;3.10;;
60999;SDS011;46879;45.658;11.814;2023-02-28T17:36:33;4.35;;;2.92;;
60999;SDS011;46879;45.658;11.814;2023-02-28T17:41:34;3.63;;;2.95;;
60999;SDS011;46879;45.658;11.814;2023-02-28T17:46:35;6.80;;;2.92;;
60999;SDS011;46879;45.658;11.814;2023-02-28T17:51:36;3.03;;;2.67;;
60999;SDS011;46879;45.658;11.814;2023-02-28T17:56:37;4.28;;;3.13;;
60999;SDS011;46879;45.658;11.814;2023-02-28T18:01:37;4.15;;;3.00;;
60999;SDS011;46879;45.658;11.814;2023-02-28T18:06:39;5.25;;;3.33;;
60999;SDS011;46879;45.658;11.814;2023-02-28T18:11:50;10.27;;;3.83;;
60999;SDS011;46879;45.658;11.814;2023-02-28T18:16:53;15.38;;;5.32;;
60999;SDS011;46879;45.658;11.814;2023-02-28T18:21:55;24.33;;;6.38;;
60999;SDS011;46879;45.658;11.814;2023-02-28T18:26:55;20.80;;;6.38;;
60999;SDS011;46879;45.658;11.814;2023-02-28T18:31:56;20.25;;;7.30;;
60999;SDS011;46879;45.658;11.814;2023-02-28T18:36:56;16.45;;;6.78;;
60999;SDS011;46879;45.658;11.814;2023-02-28T18:41:57;20.13;;;6.50;;
60999;SDS011;46879;45.658;11.814;2023-02-28T18:46:58;17.25;;;7.05;;
60999;SDS011;46879;45.658;11.814;2023-02-28T18:51:59;28.00;;;8.38;;
60999;SDS011;46879;45.658;11.814;2023-02-28T18:56:59;34.42;;;8.73;;
60999;SDS011;46879;45.658;11.814;2023-02-28T19:02:00;25.58;;;8.10;;
60999;SDS011;46879;45.658;11.814;2023-02-28T19:07:00;20.58;;;8.27;;
60999;SDS011;46879;45.658;11.814;2023-02-28T19:12:01;30.13;;;8.35;;
60999;SDS011;46879;45.658;11.814;2023-02-28T19:17:02;32.13;;;8.75;;
60999;SDS011;46879;45.658;11.814;2023-02-28T19:22:03;42.42;;;9.13;;
60999;SDS011;46879;45.658;11.814;2023-02-28T19:27:03;35.35;;;8.18;;
60999;SDS011;46879;45.658;11.814;2023-02-28T19:32:04;24.50;;;8.35;;
60999;SDS011;46879;45.658;11.814;2023-02-28T19:37:04;26.35;;;7.75;;
60999;SDS011;46879;45.658;11.814;2023-02-28T19:42:08;26.15;;;8.27;;
60999;SDS011;46879;45.658;11.814;2023-02-28T19:47:12;26.45;;;7.88;;
60999;SDS011;46879;45.658;11.814;2023-02-28T19:52:12;22.08;;;7.50;;
60999;SDS011;46879;45.658;11.814;2023-02-28T19:57:13;20.85;;;6.97;;
60999;SDS011;46879;45.658;11.814;2023-02-28T20:02:15;28.67;;;6.60;;
60999;SDS011;46879;45.658;11.814;2023-02-28T20:07:18;18.02;;;6.20;;
60999;SDS011;46879;45.658;11.814;2023-02-28T20:12:19;24.25;;;6.45;;
60999;SDS011;46879;45.658;11.814;2023-02-28T20:17:22;15.15;;;6.55;;
60999;SDS011;46879;45.658;11.814;2023-02-28T20:22:23;20.58;;;6.30;;
60999;SDS011;46879;45.658;11.814;2023-02-28T20:27:24;16.48;;;5.90;;
60999;SDS011;46879;45.658;11.814;2023-02-28T20:32:24;17.45;;;6.78;;
60999;SDS011;46879;45.658;11.814;2023-02-28T20:37:26;25.35;;;7.40;;
60999;SDS011;46879;45.658;11.814;2023-02-28T20:42:27;15.73;;;6.72;;
60999;SDS011;46879;45.658;11.814;2023-02-28T20:47:27;19.50;;;6.38;;
60999;SDS011;46879;45.658;11.814;2023-02-28T20:52:28;17.38;;;6.32;;
60999;SDS011;46879;45.658;11.814;2023-02-28T20:57:29;18.90;;;7.13;;
60999;SDS011;46879;45.658;11.814;2023-02-28T21:02:29;13.70;;;6.13;;
60999;SDS011;46879;45.658;11.814;2023-02-28T21:07:30;20.30;;;5.75;;
60999;SDS011;46879;45.658;11.814;2023-02-28T21:12:31;11.13;;;5.70;;
60999;SDS011;46879;45.658;11.814;2023-02-28T21:17:31;13.30;;;5.43;;
60999;SDS011;46879;45.658;11.814;2023-02-28T21:22:32;16.92;;;5.50;;
60999;SDS011;46879;45.658;11.814;2023-02-28T21:27:32;14.15;;;5.80;;
60999;SDS011;46879;45.658;11.814;2023-02-28T21:32:34;12.05;;;5.10;;
60999;SDS011;46879;45.658;11.814;2023-02-28T21:37:36;12.90;;;5.63;;
60999;SDS011;46879;45.658;11.814;2023-02-28T21:42:37;9.27;;;5.00;;
60999;SDS011;46879;45.658;11.814;2023-02-28T21:47:38;13.27;;;5.32;;
60999;SDS011;46879;45.658;11.814;2023-02-28T21:52:38;8.43;;;5.13;;
60999;SDS011;46879;45.658;11.814;2023-02-28T21:57:40;14.93;;;5.07;;
60999;SDS011;46879;45.658;11.814;2023-02-28T22:02:40;8.35;;;4.70;;
60999;SDS011;46879;45.658;11.814;2023-02-28T22:07:43;10.60;;;5.40;;
60999;SDS011;46879;45.658;11.814;2023-02-28T22:12:43;9.40;;;4.55;;
60999;SDS011;46879;45.658;11.814;2023-02-28T22:17:44;12.02;;;5.38;;
60999;SDS011;46879;45.658;11.814;2023-02-28T22:22:45;9.95;;;4.60;;
60999;SDS011;46879;45.658;11.814;2023-02-28T22:27:45;10.07;;;4.93;;
60999;SDS011;46879;45.658;11.814;2023-02-28T22:32:46;6.38;;;3.95;;
60999;SDS011;46879;45.658;11.814;2023-02-28T22:37:47;8.45;;;4.78;;
60999;SDS011;46879;45.658;11.814;2023-02-28T22:42:47;7.90;;;4.68;;
60999;SDS011;46879;45.658;11.814;2023-02-28T22:47:48;9.52;;;4.97;;
60999;SDS011;46879;45.658;11.814;2023-02-28T22:52:48;8.70;;;5.15;;
60999;SDS011;46879;45.658;11.814;2023-02-28T22:57:49;8.13;;;3.78;;
60999;SDS011;46879;45.658;11.814;2023-02-28T23:02:50;8.30;;;4.78;;
60999;SDS011;46879;45.658;11.814;2023-02-28T23:07:50;8.57;;;4.30;;
60999;SDS011;46879;45.658;11.814;2023-02-28T23:12:51;8.68;;;4.32;;
60999;SDS011;46879;45.658;11.814;2023-02-28T23:17:52;8.15;;;4.82;;
60999;SDS011;46879;45.658;11.814;2023-02-28T23:22:52;9.40;;;3.90;;
60999;SDS011;46879;45.658;11.814;2023-02-28T23:27:54;6.97;;;4.25;;
60999;SDS011;46879;45.658;11.814;2023-02-28T23:32:54;7.25;;;4.25;;
60999;SDS011;46879;45.658;11.814;2023-02-28T23:37:55;6.00;;;3.58;;
60999;SDS011;46879;45.658;11.814;2023-02-28T23:42:57;7.53;;;4.13;;
60999;SDS011;46879;45.658;11.814;2023-02-28T23:47:58;8.60;;;4.07;;
60999;SDS011;46879;45.658;11.814;2023-02-28T23:52:58;10.82;;;4.63;;
60999;SDS011;46879;45.658;11.814;2023-02-28T23:57:59;6.78;;;3.88;;
